Terminal Aerodrome Forecast
Issued by NWS

Home | Current Version | Previous Version | Text Only | Print | Product List | Glossary On
Versions: 1 2 3 4 5 6 7 8 9 10 11 12 13 14
000
FTUS41 KCAR 221721
TAFPQI
TAF
KPQI 221721Z 2218/2318 34005KT P6SM FEW250
     FM222200 VRB03KT P6SM VCSH BKN250
     FM230300 VRB03KT 2SM -SN OVC060
     FM230500 VRB03KT 1/2SM SN OVC045
     FM231600 12011KT 1SM -SNPL OVC003
     FM231700 13012KT 1SM -FZRASNPL OVC003=

USA.gov is the U.S. government's official web portal to all federal, state and local government web resources and services.